PTLCS SYCJ-TBPB
Flight info
| Callsign | PTLCS |
|---|---|
| Flight time | 2h 5m |
| Altitude | 17000 |
| Route | TIM UA632 BGI |
| Aircraft | B58T/L-SDFGRY/C |
Departure
| Time | 2026-05-05 15:30 |
|---|---|
| Airport | Cheddi Jagan International Airport (SYCJ) |
Arrival
| Time | 2026-05-05 17:35 |
|---|---|
| Airport | Grantley Adams International Airport (TBPB) |
| Time | Latitude | Longitude | Altitude | Speed | Heading |
|---|---|---|---|---|---|
| 2026-05-05 15:06 | 6.50478 | -58.25095 | 99 ft | 0 kts | 322° |
| 2026-05-05 15:06 | 6.50477 | -58.25095 | 99 ft | 0 kts | 322° |
| 2026-05-05 15:07 | 6.50477 | -58.25094 | 99 ft | 0 kts | 322° |
| 2026-05-05 15:14 | 6.50476 | -58.25094 | 99 ft | 0 kts | 322° |
| 2026-05-05 15:17 | 6.50479 | -58.25100 | 99 ft | 4 kts | 264° |
| 2026-05-05 15:17 | 6.50471 | -58.25075 | 99 ft | 6 kts | 118° |
| 2026-05-05 15:17 | 6.50419 | -58.25032 | 99 ft | 14 kts | 164° |
| 2026-05-05 15:18 | 6.50340 | -58.25089 | 99 ft | 18 kts | 223° |
| 2026-05-05 15:18 | 6.50231 | -58.25197 | 98 ft | 26 kts | 224° |
| 2026-05-05 15:18 | 6.50105 | -58.25323 | 99 ft | 24 kts | 224° |
| 2026-05-05 15:18 | 6.49966 | -58.25463 | 100 ft | 32 kts | 225° |
| 2026-05-05 15:19 | 6.49863 | -58.25543 | 101 ft | 14 kts | 144° |
| 2026-05-05 15:19 | 6.49855 | -58.25515 | 102 ft | 0 kts | 88° |
| 2026-05-05 15:22 | 6.49855 | -58.25516 | 102 ft | 0 kts | 88° |
| 2026-05-05 15:28 | 6.49856 | -58.25499 | 102 ft | 9 kts | 89° |
| 2026-05-05 15:29 | 6.49898 | -58.25380 | 101 ft | 37 kts | 51° |
| 2026-05-05 15:29 | 6.50260 | -58.25011 | 109 ft | 102 kts | 44° |
| 2026-05-05 15:29 | 6.50808 | -58.24425 | 298 ft | 128 kts | 48° |
| 2026-05-05 15:29 | 6.51427 | -58.23708 | 547 ft | 141 kts | 49° |
| 2026-05-05 15:30 | 6.52098 | -58.22934 | 766 ft | 150 kts | 49° |
| 2026-05-05 15:30 | 6.52856 | -58.22215 | 980 ft | 154 kts | 29° |
| 2026-05-05 15:30 | 6.53948 | -58.22165 | 1208 ft | 169 kts | 343° |
| 2026-05-05 15:30 | 6.54905 | -58.22887 | 1416 ft | 175 kts | 319° |
| 2026-05-05 15:31 | 6.55697 | -58.23835 | 1633 ft | 179 kts | 311° |
| 2026-05-05 15:31 | 6.56411 | -58.24866 | 1835 ft | 178 kts | 309° |
| 2026-05-05 15:31 | 6.57122 | -58.25896 | 2031 ft | 180 kts | 308° |
| 2026-05-05 15:31 | 6.57874 | -58.26904 | 2225 ft | 180 kts | 317° |
| 2026-05-05 15:32 | 6.58889 | -58.27601 | 2418 ft | 175 kts | 343° |
| 2026-05-05 15:32 | 6.60045 | -58.27906 | 2622 ft | 171 kts | 355° |
| 2026-05-05 15:32 | 6.61216 | -58.28102 | 2807 ft | 170 kts | 355° |
| 2026-05-05 15:32 | 6.62380 | -58.28306 | 2996 ft | 170 kts | 354° |
| 2026-05-05 15:33 | 6.63547 | -58.28520 | 3192 ft | 171 kts | 355° |
| 2026-05-05 15:33 | 6.64722 | -58.28731 | 3383 ft | 172 kts | 353° |
| 2026-05-05 15:33 | 6.65901 | -58.28945 | 3580 ft | 172 kts | 355° |
| 2026-05-05 15:33 | 6.67085 | -58.29162 | 3768 ft | 173 kts | 355° |
| 2026-05-05 15:34 | 6.68272 | -58.29376 | 3964 ft | 173 kts | 354° |
| 2026-05-05 15:34 | 6.69459 | -58.29595 | 4160 ft | 174 kts | 355° |
| 2026-05-05 15:34 | 6.70657 | -58.29812 | 4355 ft | 175 kts | 355° |
| 2026-05-05 15:34 | 6.71861 | -58.30030 | 4551 ft | 176 kts | 355° |
| 2026-05-05 15:35 | 6.73066 | -58.30250 | 4751 ft | 176 kts | 354° |
| 2026-05-05 15:35 | 6.74272 | -58.30469 | 4961 ft | 176 kts | 353° |
| 2026-05-05 15:35 | 6.75471 | -58.30688 | 5192 ft | 175 kts | 354° |
| 2026-05-05 15:35 | 6.76661 | -58.30905 | 5427 ft | 173 kts | 353° |
| 2026-05-05 15:36 | 6.77844 | -58.31120 | 5668 ft | 172 kts | 355° |
| 2026-05-05 15:36 | 6.79024 | -58.31334 | 5908 ft | 173 kts | 355° |
| 2026-05-05 15:36 | 6.80207 | -58.31549 | 6151 ft | 173 kts | 354° |
| 2026-05-05 15:36 | 6.81390 | -58.31765 | 6395 ft | 173 kts | 355° |
| 2026-05-05 15:37 | 6.82576 | -58.31981 | 6627 ft | 173 kts | 355° |
| 2026-05-05 15:37 | 6.83766 | -58.32197 | 6856 ft | 175 kts | 355° |
| 2026-05-05 15:37 | 6.84967 | -58.32415 | 7087 ft | 176 kts | 355° |
| 2026-05-05 15:37 | 6.86170 | -58.32634 | 7321 ft | 176 kts | 354° |
| 2026-05-05 15:38 | 6.87378 | -58.32856 | 7558 ft | 177 kts | 354° |
| 2026-05-05 15:38 | 6.88593 | -58.33076 | 7796 ft | 178 kts | 354° |
| 2026-05-05 15:38 | 6.89813 | -58.33300 | 8035 ft | 179 kts | 355° |
| 2026-05-05 15:38 | 6.91039 | -58.33522 | 8276 ft | 179 kts | 354° |
| 2026-05-05 15:39 | 6.92254 | -58.33744 | 8518 ft | 180 kts | 354° |
| 2026-05-05 15:39 | 6.93510 | -58.33972 | 8767 ft | 181 kts | 355° |
| 2026-05-05 15:39 | 6.94739 | -58.34195 | 9010 ft | 183 kts | 354° |
| 2026-05-05 15:39 | 6.95993 | -58.34424 | 9260 ft | 184 kts | 354° |
| 2026-05-05 15:40 | 6.97257 | -58.34654 | 9515 ft | 185 kts | 354° |
| 2026-05-05 15:40 | 6.98530 | -58.34886 | 9770 ft | 187 kts | 354° |
| 2026-05-05 15:40 | 6.99813 | -58.35120 | 10014 ft | 188 kts | 354° |
| 2026-05-05 15:40 | 7.01103 | -58.35355 | 10243 ft | 189 kts | 354° |
| 2026-05-05 15:41 | 7.02401 | -58.35591 | 10474 ft | 190 kts | 354° |
| 2026-05-05 15:41 | 7.03704 | -58.35829 | 10706 ft | 191 kts | 354° |
| 2026-05-05 15:41 | 7.05013 | -58.36068 | 10939 ft | 191 kts | 354° |
| 2026-05-05 15:41 | 7.06324 | -58.36306 | 11174 ft | 192 kts | 355° |
| 2026-05-05 15:42 | 7.07639 | -58.36546 | 11410 ft | 192 kts | 354° |
| 2026-05-05 15:42 | 7.08957 | -58.36786 | 11647 ft | 193 kts | 354° |
| 2026-05-05 15:42 | 7.10281 | -58.37027 | 11887 ft | 193 kts | 354° |
| 2026-05-05 15:42 | 7.11606 | -58.37269 | 12130 ft | 194 kts | 354° |
| 2026-05-05 15:43 | 7.12937 | -58.37512 | 12376 ft | 195 kts | 354° |
| 2026-05-05 15:43 | 7.14273 | -58.37756 | 12622 ft | 196 kts | 354° |
| 2026-05-05 15:43 | 7.15614 | -58.38000 | 12870 ft | 196 kts | 354° |
| 2026-05-05 15:43 | 7.16960 | -58.38245 | 13119 ft | 197 kts | 354° |
| 2026-05-05 15:44 | 7.18309 | -58.38491 | 13371 ft | 197 kts | 355° |
| 2026-05-05 15:44 | 7.19663 | -58.38738 | 13624 ft | 198 kts | 355° |
| 2026-05-05 15:44 | 7.21021 | -58.38986 | 13873 ft | 199 kts | 355° |
| 2026-05-05 15:44 | 7.22384 | -58.39234 | 14099 ft | 199 kts | 355° |
| 2026-05-05 15:45 | 7.23750 | -58.39484 | 14330 ft | 200 kts | 355° |
| 2026-05-05 15:45 | 7.25119 | -58.39733 | 14556 ft | 200 kts | 355° |
| 2026-05-05 15:45 | 7.26490 | -58.39983 | 14786 ft | 200 kts | 355° |
| 2026-05-05 15:45 | 7.27864 | -58.40234 | 15017 ft | 201 kts | 355° |
| 2026-05-05 15:46 | 7.29239 | -58.40484 | 15248 ft | 201 kts | 355° |
| 2026-05-05 15:46 | 7.30616 | -58.40736 | 15483 ft | 201 kts | 355° |
| 2026-05-05 15:46 | 7.31996 | -58.40987 | 15719 ft | 202 kts | 355° |
| 2026-05-05 15:46 | 7.33378 | -58.41239 | 15952 ft | 202 kts | 355° |
| 2026-05-05 15:47 | 7.34742 | -58.41489 | 16197 ft | 202 kts | 355° |
| 2026-05-05 15:47 | 7.35677 | -58.41659 | 16361 ft | 202 kts | 355° |
| 2026-05-05 15:47 | 7.37513 | -58.41994 | 16683 ft | 203 kts | 355° |
| 2026-05-05 15:47 | 7.38921 | -58.42251 | 16934 ft | 203 kts | 355° |
| 2026-05-05 15:48 | 7.40325 | -58.42506 | 17044 ft | 211 kts | 355° |
| 2026-05-05 15:48 | 7.41784 | -58.42770 | 17058 ft | 220 kts | 355° |
| 2026-05-05 15:48 | 7.43320 | -58.43050 | 17057 ft | 228 kts | 354° |
| 2026-05-05 15:48 | 7.44904 | -58.43340 | 17058 ft | 234 kts | 354° |
| 2026-05-05 15:49 | 7.46521 | -58.43636 | 17059 ft | 238 kts | 354° |
| 2026-05-05 15:49 | 7.48162 | -58.43936 | 17057 ft | 241 kts | 354° |
| 2026-05-05 15:49 | 7.49821 | -58.44239 | 17055 ft | 244 kts | 354° |
| 2026-05-05 15:49 | 7.51494 | -58.44545 | 17059 ft | 245 kts | 354° |
| 2026-05-05 15:50 | 7.53172 | -58.44854 | 17058 ft | 245 kts | 354° |
| 2026-05-05 15:50 | 7.54850 | -58.45162 | 17059 ft | 245 kts | 354° |
| 2026-05-05 15:50 | 7.56530 | -58.45468 | 17059 ft | 245 kts | 354° |
| 2026-05-05 15:50 | 7.58205 | -58.45770 | 17059 ft | 244 kts | 354° |
| 2026-05-05 15:51 | 7.59876 | -58.46075 | 17057 ft | 244 kts | 354° |
| 2026-05-05 15:51 | 7.61545 | -58.46381 | 17056 ft | 244 kts | 354° |
| 2026-05-05 15:51 | 7.63211 | -58.46685 | 17058 ft | 243 kts | 354° |
| 2026-05-05 15:51 | 7.64876 | -58.46990 | 17055 ft | 243 kts | 354° |
| 2026-05-05 15:52 | 7.66540 | -58.47294 | 17053 ft | 243 kts | 354° |
| 2026-05-05 15:52 | 7.68203 | -58.47597 | 17052 ft | 243 kts | 354° |
| 2026-05-05 15:52 | 7.69865 | -58.47901 | 17050 ft | 243 kts | 354° |
| 2026-05-05 15:52 | 7.71526 | -58.48205 | 17051 ft | 243 kts | 354° |
| 2026-05-05 15:53 | 7.73187 | -58.48508 | 17053 ft | 242 kts | 354° |
| 2026-05-05 15:53 | 7.74845 | -58.48813 | 17050 ft | 242 kts | 354° |
| 2026-05-05 15:53 | 7.76502 | -58.49119 | 17050 ft | 242 kts | 354° |
| 2026-05-05 15:53 | 7.78163 | -58.49425 | 17050 ft | 242 kts | 354° |
| 2026-05-05 15:54 | 7.79819 | -58.49729 | 17048 ft | 242 kts | 354° |
| 2026-05-05 15:54 | 7.81476 | -58.50034 | 17048 ft | 242 kts | 354° |
| 2026-05-05 15:54 | 7.83134 | -58.50338 | 17049 ft | 242 kts | 354° |
| 2026-05-05 15:54 | 7.84795 | -58.50644 | 17049 ft | 243 kts | 354° |
| 2026-05-05 15:55 | 7.86457 | -58.50951 | 17055 ft | 243 kts | 354° |
| 2026-05-05 15:55 | 7.88122 | -58.51257 | 17056 ft | 243 kts | 354° |
| 2026-05-05 15:55 | 7.89790 | -58.51563 | 17056 ft | 244 kts | 354° |
| 2026-05-05 15:55 | 7.91456 | -58.51870 | 17056 ft | 244 kts | 354° |
| 2026-05-05 15:56 | 7.93123 | -58.52177 | 17056 ft | 244 kts | 354° |
| 2026-05-05 15:56 | 7.94797 | -58.52485 | 17061 ft | 245 kts | 354° |
| 2026-05-05 15:56 | 7.96485 | -58.52796 | 17061 ft | 248 kts | 354° |
| 2026-05-05 15:56 | 7.98180 | -58.53110 | 17059 ft | 247 kts | 354° |
| 2026-05-05 15:57 | 7.99870 | -58.53420 | 17059 ft | 246 kts | 354° |
| 2026-05-05 15:57 | 8.01531 | -58.53726 | 17059 ft | 246 kts | 354° |
| 2026-05-05 15:57 | 8.03211 | -58.54035 | 17061 ft | 245 kts | 354° |
| 2026-05-05 15:57 | 8.04889 | -58.54345 | 17063 ft | 245 kts | 354° |
| 2026-05-05 15:58 | 8.06565 | -58.54654 | 17058 ft | 245 kts | 354° |
| 2026-05-05 15:58 | 8.08239 | -58.54962 | 17056 ft | 244 kts | 354° |
| 2026-05-05 15:58 | 8.09911 | -58.55270 | 17056 ft | 244 kts | 354° |
| 2026-05-05 15:58 | 8.11582 | -58.55578 | 17056 ft | 244 kts | 353° |
| 2026-05-05 15:59 | 8.13251 | -58.55886 | 17058 ft | 244 kts | 354° |
| 2026-05-05 15:59 | 8.14922 | -58.56194 | 17058 ft | 244 kts | 354° |
| 2026-05-05 15:59 | 8.16592 | -58.56501 | 17058 ft | 244 kts | 354° |
| 2026-05-05 15:59 | 8.18260 | -58.56809 | 17058 ft | 244 kts | 354° |
| 2026-05-05 16:00 | 8.19930 | -58.57117 | 17057 ft | 244 kts | 354° |
| 2026-05-05 16:00 | 8.21599 | -58.57425 | 17057 ft | 244 kts | 354° |
| 2026-05-05 16:00 | 8.23267 | -58.57732 | 17058 ft | 244 kts | 354° |
| 2026-05-05 16:00 | 8.24937 | -58.58040 | 17057 ft | 244 kts | 354° |
| 2026-05-05 16:01 | 8.26607 | -58.58348 | 17058 ft | 244 kts | 354° |
| 2026-05-05 16:01 | 8.28274 | -58.58656 | 17058 ft | 244 kts | 354° |
| 2026-05-05 16:01 | 8.29944 | -58.58964 | 17058 ft | 244 kts | 354° |
| 2026-05-05 16:01 | 8.31613 | -58.59272 | 17058 ft | 244 kts | 354° |
| 2026-05-05 16:02 | 8.33282 | -58.59580 | 17055 ft | 244 kts | 354° |
| 2026-05-05 16:02 | 8.34949 | -58.59887 | 17055 ft | 243 kts | 354° |
| 2026-05-05 16:02 | 8.36616 | -58.60195 | 17055 ft | 244 kts | 354° |
| 2026-05-05 16:02 | 8.38282 | -58.60502 | 17055 ft | 244 kts | 354° |
| 2026-05-05 16:03 | 8.39949 | -58.60810 | 17057 ft | 244 kts | 354° |
| 2026-05-05 16:03 | 8.41616 | -58.61118 | 17057 ft | 243 kts | 354° |
| 2026-05-05 16:03 | 8.43282 | -58.61425 | 17054 ft | 243 kts | 354° |
| 2026-05-05 16:03 | 8.44950 | -58.61733 | 17054 ft | 244 kts | 353° |
| 2026-05-05 16:04 | 8.46615 | -58.62041 | 17055 ft | 243 kts | 354° |
| 2026-05-05 16:04 | 8.48281 | -58.62348 | 17055 ft | 243 kts | 354° |
| 2026-05-05 16:04 | 8.49949 | -58.62656 | 17055 ft | 244 kts | 353° |
| 2026-05-05 16:04 | 8.51615 | -58.62964 | 17055 ft | 243 kts | 353° |
| 2026-05-05 16:05 | 8.53280 | -58.63271 | 17052 ft | 243 kts | 354° |
| 2026-05-05 16:05 | 8.54946 | -58.63579 | 17052 ft | 243 kts | 354° |
| 2026-05-05 16:05 | 8.56611 | -58.63887 | 17052 ft | 243 kts | 354° |
| 2026-05-05 16:05 | 8.58278 | -58.64194 | 17052 ft | 243 kts | 353° |
| 2026-05-05 16:06 | 8.59943 | -58.64503 | 17053 ft | 243 kts | 354° |
| 2026-05-05 16:06 | 8.61046 | -58.64706 | 17053 ft | 243 kts | 353° |
| 2026-05-05 16:06 | 8.62711 | -58.65013 | 17052 ft | 243 kts | 353° |
| 2026-05-05 16:06 | 8.64377 | -58.65322 | 17053 ft | 243 kts | 354° |
| 2026-05-05 16:07 | 8.66044 | -58.65630 | 17053 ft | 243 kts | 353° |
| 2026-05-05 16:07 | 8.67708 | -58.65937 | 17055 ft | 243 kts | 354° |
| 2026-05-05 16:07 | 8.69375 | -58.66245 | 17056 ft | 243 kts | 354° |
| 2026-05-05 16:07 | 8.71040 | -58.66554 | 17056 ft | 243 kts | 354° |
| 2026-05-05 16:08 | 8.72707 | -58.66862 | 17056 ft | 243 kts | 354° |
| 2026-05-05 16:08 | 8.74373 | -58.67169 | 17053 ft | 243 kts | 353° |
| 2026-05-05 16:08 | 8.76037 | -58.67478 | 17054 ft | 243 kts | 354° |
| 2026-05-05 16:08 | 8.77701 | -58.67785 | 17054 ft | 243 kts | 354° |
| 2026-05-05 16:09 | 8.79364 | -58.68092 | 17052 ft | 243 kts | 353° |
| 2026-05-05 16:09 | 8.81026 | -58.68400 | 17051 ft | 243 kts | 354° |
| 2026-05-05 16:09 | 8.82687 | -58.68708 | 17051 ft | 243 kts | 354° |
| 2026-05-05 16:09 | 8.84351 | -58.69014 | 17052 ft | 243 kts | 354° |
| 2026-05-05 16:10 | 8.86011 | -58.69322 | 17051 ft | 243 kts | 353° |
| 2026-05-05 16:10 | 8.87674 | -58.69630 | 17052 ft | 243 kts | 353° |
| 2026-05-05 16:10 | 8.89334 | -58.69937 | 17052 ft | 243 kts | 354° |
| 2026-05-05 16:10 | 8.90997 | -58.70245 | 17052 ft | 243 kts | 354° |
| 2026-05-05 16:11 | 8.92657 | -58.70553 | 17052 ft | 243 kts | 353° |
| 2026-05-05 16:11 | 8.97621 | -58.71471 | 17052 ft | 243 kts | 354° |
| 2026-05-05 16:12 | 8.99283 | -58.71780 | 17055 ft | 243 kts | 353° |
| 2026-05-05 16:12 | 9.02606 | -58.72395 | 17056 ft | 243 kts | 354° |
| 2026-05-05 16:13 | 9.07598 | -58.73319 | 17053 ft | 243 kts | 353° |
| 2026-05-05 16:13 | 9.09260 | -58.73629 | 17053 ft | 243 kts | 354° |
| 2026-05-05 16:13 | 9.10923 | -58.73935 | 17054 ft | 243 kts | 354° |
| 2026-05-05 16:14 | 9.14245 | -58.74552 | 17054 ft | 243 kts | 353° |
| 2026-05-05 16:14 | 9.17571 | -58.75167 | 17054 ft | 243 kts | 354° |
| 2026-05-05 16:15 | 9.20895 | -58.75783 | 17053 ft | 243 kts | 353° |
| 2026-05-05 16:15 | 9.24221 | -58.76400 | 17053 ft | 243 kts | 354° |
| 2026-05-05 16:16 | 9.27545 | -58.77018 | 17056 ft | 243 kts | 353° |
| 2026-05-05 16:16 | 9.30868 | -58.77633 | 17056 ft | 243 kts | 353° |
| 2026-05-05 16:17 | 9.34191 | -58.78251 | 17054 ft | 243 kts | 353° |
| 2026-05-05 16:17 | 9.35856 | -58.78559 | 17054 ft | 243 kts | 354° |
| 2026-05-05 16:18 | 9.39180 | -58.79176 | 17055 ft | 243 kts | 353° |
| 2026-05-05 16:18 | 9.40840 | -58.79484 | 17055 ft | 243 kts | 354° |
| 2026-05-05 16:18 | 9.44163 | -58.80100 | 17055 ft | 243 kts | 354° |
| 2026-05-05 16:19 | 9.45824 | -58.80407 | 17055 ft | 243 kts | 353° |
| 2026-05-05 16:19 | 9.47485 | -58.80717 | 17074 ft | 242 kts | 353° |
| 2026-05-05 16:19 | 9.50809 | -58.81334 | 17058 ft | 243 kts | 353° |
| 2026-05-05 16:20 | 9.54133 | -58.81952 | 17058 ft | 243 kts | 353° |
| 2026-05-05 16:20 | 9.57460 | -58.82570 | 17059 ft | 243 kts | 354° |
| 2026-05-05 16:21 | 9.60786 | -58.83188 | 17060 ft | 243 kts | 354° |
| 2026-05-05 16:22 | 9.65754 | -58.84111 | 17061 ft | 243 kts | 353° |
| 2026-05-05 16:22 | 9.69084 | -58.84731 | 17059 ft | 243 kts | 354° |
| 2026-05-05 16:23 | 9.72414 | -58.85348 | 17054 ft | 243 kts | 354° |
| 2026-05-05 16:23 | 9.74077 | -58.85659 | 17054 ft | 243 kts | 353° |
| 2026-05-05 16:23 | 9.77401 | -58.86277 | 17055 ft | 243 kts | 354° |
| 2026-05-05 16:24 | 9.79061 | -58.86585 | 17055 ft | 243 kts | 353° |
| 2026-05-05 16:24 | 9.80721 | -58.86896 | 17055 ft | 242 kts | 354° |
| 2026-05-05 16:24 | 9.84041 | -58.87511 | 17054 ft | 242 kts | 355° |
| 2026-05-05 16:25 | 9.85699 | -58.87820 | 17055 ft | 242 kts | 353° |
| 2026-05-05 16:25 | 9.89015 | -58.88440 | 17055 ft | 242 kts | 354° |
| 2026-05-05 16:25 | 9.90672 | -58.88748 | 17055 ft | 242 kts | 354° |
| 2026-05-05 16:26 | 9.93989 | -58.89320 | 17055 ft | 242 kts | 353° |
| 2026-05-05 16:26 | 9.97301 | -58.89973 | 17058 ft | 242 kts | 353° |
| 2026-05-05 16:27 | 9.98957 | -58.90279 | 17056 ft | 242 kts | 353° |
| 2026-05-05 16:27 | 10.00615 | -58.90586 | 17056 ft | 242 kts | 354° |
| 2026-05-05 16:27 | 10.02272 | -58.90894 | 17057 ft | 242 kts | 353° |
| 2026-05-05 16:27 | 10.03931 | -58.91203 | 17055 ft | 242 kts | 355° |
| 2026-05-05 16:28 | 10.05587 | -58.91512 | 17056 ft | 242 kts | 353° |
| 2026-05-05 16:28 | 10.07241 | -58.91820 | 17057 ft | 242 kts | 355° |
| 2026-05-05 16:28 | 10.08894 | -58.92129 | 17057 ft | 241 kts | 354° |
| 2026-05-05 16:28 | 10.10545 | -58.92436 | 17057 ft | 241 kts | 354° |
| 2026-05-05 16:29 | 10.12195 | -58.92744 | 17057 ft | 241 kts | 353° |
| 2026-05-05 16:29 | 10.13844 | -58.93052 | 17057 ft | 241 kts | 353° |
| 2026-05-05 16:29 | 10.15493 | -58.93360 | 17057 ft | 241 kts | 354° |
| 2026-05-05 16:29 | 10.17142 | -58.93666 | 17058 ft | 241 kts | 353° |
| 2026-05-05 16:30 | 10.18791 | -58.93973 | 17060 ft | 241 kts | 353° |
| 2026-05-05 16:30 | 10.20440 | -58.94282 | 17060 ft | 241 kts | 354° |
| 2026-05-05 16:30 | 10.22090 | -58.94589 | 17060 ft | 241 kts | 353° |
| 2026-05-05 16:30 | 10.23739 | -58.94897 | 17060 ft | 241 kts | 354° |
| 2026-05-05 16:31 | 10.25388 | -58.95206 | 17059 ft | 241 kts | 353° |
| 2026-05-05 16:31 | 10.27038 | -58.95513 | 17059 ft | 241 kts | 354° |
| 2026-05-05 16:31 | 10.28686 | -58.95820 | 17059 ft | 241 kts | 354° |
| 2026-05-05 16:31 | 10.30337 | -58.96128 | 17059 ft | 241 kts | 354° |
| 2026-05-05 16:32 | 10.31985 | -58.96436 | 17060 ft | 241 kts | 353° |
| 2026-05-05 16:32 | 10.33635 | -58.96745 | 17060 ft | 241 kts | 353° |
| 2026-05-05 16:32 | 10.35285 | -58.97053 | 17060 ft | 241 kts | 354° |
| 2026-05-05 16:32 | 10.36931 | -58.97360 | 17063 ft | 240 kts | 354° |
| 2026-05-05 16:33 | 10.38575 | -58.97665 | 17062 ft | 240 kts | 353° |
| 2026-05-05 16:33 | 10.40218 | -58.97975 | 17062 ft | 240 kts | 353° |
| 2026-05-05 16:33 | 10.41859 | -58.98281 | 17062 ft | 240 kts | 354° |
| 2026-05-05 16:33 | 10.43501 | -58.98587 | 17061 ft | 240 kts | 354° |
| 2026-05-05 16:34 | 10.45143 | -58.98894 | 17061 ft | 240 kts | 353° |
| 2026-05-05 16:34 | 10.46783 | -58.99201 | 17061 ft | 240 kts | 354° |
| 2026-05-05 16:34 | 10.48424 | -58.99508 | 17062 ft | 240 kts | 354° |
| 2026-05-05 16:34 | 10.50064 | -58.99814 | 17062 ft | 240 kts | 355° |
| 2026-05-05 16:35 | 10.51704 | -59.00120 | 17061 ft | 240 kts | 354° |
| 2026-05-05 16:35 | 10.53321 | -59.00423 | 17062 ft | 240 kts | 353° |
| 2026-05-05 16:35 | 10.54961 | -59.00731 | 17062 ft | 240 kts | 354° |
| 2026-05-05 16:35 | 10.56623 | -59.01040 | 17063 ft | 240 kts | 354° |
| 2026-05-05 16:36 | 10.58242 | -59.01343 | 17065 ft | 240 kts | 353° |
| 2026-05-05 16:36 | 10.59905 | -59.01655 | 17066 ft | 240 kts | 353° |
| 2026-05-05 16:36 | 10.61525 | -59.01957 | 17066 ft | 240 kts | 354° |
| 2026-05-05 16:36 | 10.63189 | -59.02269 | 17064 ft | 240 kts | 354° |
| 2026-05-05 16:37 | 10.64810 | -59.02572 | 17062 ft | 240 kts | 353° |
| 2026-05-05 16:37 | 10.66453 | -59.02880 | 17058 ft | 240 kts | 353° |
| 2026-05-05 16:37 | 10.68097 | -59.03188 | 17059 ft | 240 kts | 354° |
| 2026-05-05 16:37 | 10.69740 | -59.03494 | 17061 ft | 240 kts | 354° |
| 2026-05-05 16:38 | 10.71382 | -59.03801 | 17056 ft | 240 kts | 354° |
| 2026-05-05 16:38 | 10.73021 | -59.04109 | 17056 ft | 240 kts | 354° |
| 2026-05-05 16:38 | 10.74659 | -59.04416 | 17055 ft | 239 kts | 354° |
| 2026-05-05 16:38 | 10.76298 | -59.04722 | 17055 ft | 239 kts | 355° |
| 2026-05-05 16:39 | 10.77935 | -59.05028 | 17058 ft | 239 kts | 353° |
| 2026-05-05 16:39 | 10.79571 | -59.05336 | 17058 ft | 239 kts | 353° |
| 2026-05-05 16:39 | 10.81207 | -59.05644 | 17059 ft | 239 kts | 354° |
| 2026-05-05 16:39 | 10.82845 | -59.05952 | 17059 ft | 239 kts | 354° |
| 2026-05-05 16:40 | 10.84481 | -59.06259 | 17059 ft | 239 kts | 353° |
| 2026-05-05 16:40 | 10.86120 | -59.06562 | 17059 ft | 239 kts | 354° |
| 2026-05-05 16:40 | 10.87755 | -59.06859 | 17059 ft | 239 kts | 354° |
| 2026-05-05 16:40 | 10.89390 | -59.07165 | 17059 ft | 239 kts | 354° |
| 2026-05-05 16:41 | 10.91025 | -59.07474 | 17059 ft | 239 kts | 353° |
| 2026-05-05 16:41 | 10.92660 | -59.07780 | 17059 ft | 239 kts | 353° |
| 2026-05-05 16:41 | 10.94294 | -59.08085 | 17059 ft | 239 kts | 354° |
| 2026-05-05 16:41 | 10.95927 | -59.08392 | 17059 ft | 239 kts | 354° |
| 2026-05-05 16:42 | 10.97562 | -59.08699 | 17056 ft | 239 kts | 353° |
| 2026-05-05 16:42 | 10.99197 | -59.09007 | 17056 ft | 239 kts | 353° |
| 2026-05-05 16:42 | 11.00831 | -59.09312 | 17054 ft | 239 kts | 354° |
| 2026-05-05 16:42 | 11.02445 | -59.09615 | 17054 ft | 239 kts | 354° |
| 2026-05-05 16:43 | 11.04076 | -59.09923 | 17055 ft | 239 kts | 353° |
| 2026-05-05 16:43 | 11.05709 | -59.10228 | 17054 ft | 239 kts | 353° |
| 2026-05-05 16:43 | 11.07341 | -59.10535 | 17055 ft | 238 kts | 354° |
| 2026-05-05 16:43 | 11.08972 | -59.10839 | 17055 ft | 238 kts | 353° |
| 2026-05-05 16:44 | 11.10604 | -59.11146 | 17058 ft | 238 kts | 353° |
| 2026-05-05 16:44 | 11.12235 | -59.11453 | 17058 ft | 238 kts | 353° |
| 2026-05-05 16:44 | 11.13866 | -59.11759 | 17058 ft | 238 kts | 354° |
| 2026-05-05 16:44 | 11.15495 | -59.12066 | 17058 ft | 238 kts | 354° |
| 2026-05-05 16:45 | 11.17126 | -59.12372 | 17056 ft | 238 kts | 353° |
| 2026-05-05 16:45 | 11.18758 | -59.12678 | 17056 ft | 239 kts | 354° |
| 2026-05-05 16:45 | 11.20391 | -59.12985 | 17056 ft | 238 kts | 354° |
| 2026-05-05 16:45 | 11.22023 | -59.13291 | 17056 ft | 238 kts | 354° |
| 2026-05-05 16:46 | 11.23654 | -59.13597 | 17056 ft | 238 kts | 353° |
| 2026-05-05 16:46 | 11.25284 | -59.13904 | 17056 ft | 238 kts | 353° |
| 2026-05-05 16:46 | 11.26915 | -59.14211 | 17060 ft | 238 kts | 353° |
| 2026-05-05 16:46 | 11.28542 | -59.14515 | 17060 ft | 238 kts | 355° |
| 2026-05-05 16:47 | 11.30174 | -59.14821 | 17060 ft | 238 kts | 353° |
| 2026-05-05 16:47 | 11.31803 | -59.15130 | 17060 ft | 238 kts | 353° |
| 2026-05-05 16:47 | 11.33433 | -59.15437 | 17059 ft | 238 kts | 354° |
| 2026-05-05 16:47 | 11.35061 | -59.15741 | 17059 ft | 238 kts | 353° |
| 2026-05-05 16:48 | 11.36687 | -59.16046 | 17056 ft | 238 kts | 353° |
| 2026-05-05 16:48 | 11.38315 | -59.16354 | 17056 ft | 238 kts | 353° |
| 2026-05-05 16:48 | 11.39940 | -59.16659 | 17060 ft | 238 kts | 354° |
| 2026-05-05 16:48 | 11.41566 | -59.16965 | 17059 ft | 238 kts | 354° |
| 2026-05-05 16:49 | 11.43192 | -59.17272 | 17059 ft | 238 kts | 353° |
| 2026-05-05 16:49 | 11.44819 | -59.17577 | 17060 ft | 238 kts | 353° |
| 2026-05-05 16:49 | 11.46444 | -59.17883 | 17060 ft | 238 kts | 353° |
| 2026-05-05 16:49 | 11.48069 | -59.18189 | 17060 ft | 238 kts | 354° |
| 2026-05-05 16:50 | 11.49695 | -59.18496 | 17060 ft | 238 kts | 353° |
| 2026-05-05 16:50 | 11.51322 | -59.18802 | 17060 ft | 238 kts | 354° |
| 2026-05-05 16:50 | 11.52948 | -59.19108 | 17061 ft | 237 kts | 354° |
| 2026-05-05 16:50 | 11.54573 | -59.19414 | 17061 ft | 237 kts | 355° |
| 2026-05-05 16:51 | 11.56196 | -59.19719 | 17064 ft | 237 kts | 353° |
| 2026-05-05 16:51 | 11.57821 | -59.20026 | 17063 ft | 237 kts | 353° |
| 2026-05-05 16:51 | 11.59446 | -59.20332 | 17064 ft | 237 kts | 354° |
| 2026-05-05 16:51 | 11.61070 | -59.20637 | 17064 ft | 237 kts | 353° |
| 2026-05-05 16:52 | 11.62695 | -59.20943 | 17061 ft | 238 kts | 353° |
| 2026-05-05 16:52 | 11.64320 | -59.21251 | 17062 ft | 237 kts | 353° |
| 2026-05-05 16:52 | 11.65945 | -59.21557 | 17062 ft | 237 kts | 354° |
| 2026-05-05 16:52 | 11.67567 | -59.21861 | 17063 ft | 237 kts | 353° |
| 2026-05-05 16:53 | 11.68640 | -59.22064 | 17062 ft | 237 kts | 353° |
| 2026-05-05 16:53 | 11.70261 | -59.22370 | 17063 ft | 237 kts | 354° |
| 2026-05-05 16:53 | 11.71881 | -59.22675 | 17063 ft | 237 kts | 354° |
| 2026-05-05 16:53 | 11.73498 | -59.22980 | 17063 ft | 236 kts | 354° |
| 2026-05-05 16:54 | 11.75117 | -59.23287 | 17063 ft | 237 kts | 353° |
| 2026-05-05 16:54 | 11.76736 | -59.23591 | 17063 ft | 237 kts | 353° |
| 2026-05-05 16:54 | 11.78355 | -59.23896 | 17067 ft | 237 kts | 354° |
| 2026-05-05 16:54 | 11.79974 | -59.24202 | 17067 ft | 237 kts | 354° |
| 2026-05-05 16:55 | 11.81594 | -59.24507 | 17063 ft | 237 kts | 353° |
| 2026-05-05 16:55 | 11.83212 | -59.24813 | 17064 ft | 237 kts | 353° |
| 2026-05-05 16:55 | 11.84831 | -59.25120 | 17064 ft | 236 kts | 353° |
| 2026-05-05 16:55 | 11.86449 | -59.25423 | 17064 ft | 236 kts | 353° |
| 2026-05-05 16:56 | 11.88067 | -59.25729 | 17067 ft | 237 kts | 353° |
| 2026-05-05 16:56 | 11.89686 | -59.26035 | 17067 ft | 237 kts | 353° |
| 2026-05-05 16:56 | 11.91281 | -59.26337 | 17067 ft | 236 kts | 354° |
| 2026-05-05 16:56 | 11.92895 | -59.26641 | 17068 ft | 236 kts | 354° |
| 2026-05-05 16:57 | 11.94515 | -59.26946 | 17067 ft | 236 kts | 353° |
| 2026-05-05 16:57 | 11.96127 | -59.27251 | 17067 ft | 236 kts | 353° |
| 2026-05-05 16:57 | 11.97748 | -59.27559 | 17065 ft | 236 kts | 354° |
| 2026-05-05 16:57 | 11.99365 | -59.27863 | 17065 ft | 236 kts | 354° |
| 2026-05-05 16:58 | 12.00981 | -59.28169 | 17062 ft | 236 kts | 353° |
| 2026-05-05 16:58 | 12.02597 | -59.28474 | 17062 ft | 236 kts | 354° |
| 2026-05-05 16:58 | 12.04214 | -59.28778 | 17066 ft | 236 kts | 353° |
| 2026-05-05 16:58 | 12.05831 | -59.29084 | 17066 ft | 236 kts | 354° |
| 2026-05-05 16:59 | 12.07449 | -59.29391 | 17066 ft | 237 kts | 353° |
| 2026-05-05 16:59 | 12.09069 | -59.29698 | 17066 ft | 237 kts | 353° |
| 2026-05-05 16:59 | 12.10687 | -59.30002 | 17068 ft | 237 kts | 354° |
| 2026-05-05 16:59 | 12.12306 | -59.30308 | 17068 ft | 236 kts | 353° |
| 2026-05-05 17:00 | 12.13924 | -59.30614 | 17068 ft | 237 kts | 353° |
| 2026-05-05 17:00 | 12.15543 | -59.30921 | 16946 ft | 238 kts | 353° |
| 2026-05-05 17:00 | 12.17164 | -59.31232 | 16700 ft | 237 kts | 354° |
| 2026-05-05 17:00 | 12.18778 | -59.31541 | 16455 ft | 235 kts | 353° |
| 2026-05-05 17:01 | 12.20386 | -59.31843 | 16213 ft | 235 kts | 353° |
| 2026-05-05 17:01 | 12.21991 | -59.32146 | 15970 ft | 234 kts | 354° |
| 2026-05-05 17:01 | 12.23591 | -59.32448 | 15732 ft | 234 kts | 354° |
| 2026-05-05 17:01 | 12.25190 | -59.32752 | 15494 ft | 233 kts | 354° |
| 2026-05-05 17:02 | 12.26782 | -59.33054 | 15260 ft | 233 kts | 354° |
| 2026-05-05 17:02 | 12.28372 | -59.33355 | 15028 ft | 232 kts | 354° |
| 2026-05-05 17:02 | 12.29957 | -59.33654 | 14799 ft | 232 kts | 354° |
| 2026-05-05 17:02 | 12.31540 | -59.33954 | 14569 ft | 231 kts | 354° |
| 2026-05-05 17:03 | 12.33119 | -59.34253 | 14341 ft | 231 kts | 355° |
| 2026-05-05 17:03 | 12.34674 | -59.34548 | 14121 ft | 230 kts | 355° |
| 2026-05-05 17:03 | 12.36247 | -59.34846 | 13893 ft | 229 kts | 355° |
| 2026-05-05 17:03 | 12.37768 | -59.35134 | 13650 ft | 229 kts | 355° |
| 2026-05-05 17:04 | 12.39332 | -59.35430 | 13393 ft | 228 kts | 355° |
| 2026-05-05 17:04 | 12.40892 | -59.35726 | 13141 ft | 228 kts | 355° |
| 2026-05-05 17:04 | 12.42446 | -59.36021 | 12908 ft | 226 kts | 355° |
| 2026-05-05 17:04 | 12.43985 | -59.36313 | 12737 ft | 223 kts | 355° |
| 2026-05-05 17:05 | 12.45507 | -59.36602 | 12563 ft | 222 kts | 355° |
| 2026-05-05 17:05 | 12.47022 | -59.36889 | 12346 ft | 222 kts | 355° |
| 2026-05-05 17:05 | 12.48543 | -59.37177 | 12126 ft | 222 kts | 354° |
| 2026-05-05 17:05 | 12.50064 | -59.37465 | 11909 ft | 222 kts | 355° |
| 2026-05-05 17:06 | 12.51584 | -59.37754 | 11694 ft | 222 kts | 354° |
| 2026-05-05 17:06 | 12.53104 | -59.38042 | 11479 ft | 222 kts | 354° |
| 2026-05-05 17:06 | 12.54624 | -59.38330 | 11261 ft | 222 kts | 355° |
| 2026-05-05 17:06 | 12.56142 | -59.38618 | 11057 ft | 222 kts | 354° |
| 2026-05-05 17:07 | 12.57657 | -59.38906 | 10844 ft | 221 kts | 354° |
| 2026-05-05 17:07 | 12.59169 | -59.39193 | 10635 ft | 221 kts | 354° |
| 2026-05-05 17:07 | 12.60680 | -59.39480 | 10426 ft | 221 kts | 354° |
| 2026-05-05 17:07 | 12.62191 | -59.39766 | 10218 ft | 221 kts | 354° |
| 2026-05-05 17:08 | 12.63701 | -59.40053 | 10016 ft | 221 kts | 354° |
| 2026-05-05 17:08 | 12.65209 | -59.40340 | 9796 ft | 220 kts | 354° |
| 2026-05-05 17:08 | 12.66716 | -59.40627 | 9568 ft | 220 kts | 354° |
| 2026-05-05 17:08 | 12.68221 | -59.40912 | 9345 ft | 220 kts | 353° |
| 2026-05-05 17:09 | 12.69723 | -59.41197 | 9124 ft | 219 kts | 353° |
| 2026-05-05 17:09 | 12.71218 | -59.41482 | 8902 ft | 218 kts | 354° |
| 2026-05-05 17:09 | 12.72711 | -59.41764 | 8652 ft | 217 kts | 354° |
| 2026-05-05 17:09 | 12.74181 | -59.42040 | 8353 ft | 213 kts | 354° |
| 2026-05-05 17:10 | 12.75626 | -59.42313 | 8050 ft | 209 kts | 353° |
| 2026-05-05 17:10 | 12.77048 | -59.42585 | 7759 ft | 207 kts | 353° |
| 2026-05-05 17:10 | 12.78456 | -59.42855 | 7470 ft | 205 kts | 354° |
| 2026-05-05 17:10 | 12.79846 | -59.43119 | 7254 ft | 202 kts | 355° |
| 2026-05-05 17:11 | 12.81240 | -59.43385 | 7072 ft | 206 kts | 354° |
| 2026-05-05 17:11 | 12.82651 | -59.43653 | 6890 ft | 207 kts | 353° |
| 2026-05-05 17:11 | 12.84073 | -59.43922 | 6708 ft | 208 kts | 353° |
| 2026-05-05 17:11 | 12.85498 | -59.44194 | 6526 ft | 209 kts | 354° |
| 2026-05-05 17:12 | 12.86909 | -59.44461 | 6339 ft | 209 kts | 354° |
| 2026-05-05 17:12 | 12.88357 | -59.44738 | 6141 ft | 208 kts | 353° |
| 2026-05-05 17:12 | 12.89789 | -59.45010 | 5898 ft | 210 kts | 354° |
| 2026-05-05 17:12 | 12.91226 | -59.45283 | 5660 ft | 210 kts | 354° |
| 2026-05-05 17:13 | 12.92668 | -59.45557 | 5418 ft | 211 kts | 353° |
| 2026-05-05 17:13 | 12.94087 | -59.45827 | 5200 ft | 210 kts | 353° |
| 2026-05-05 17:13 | 12.95523 | -59.46102 | 4947 ft | 210 kts | 353° |
| 2026-05-05 17:13 | 12.96961 | -59.46375 | 4679 ft | 210 kts | 354° |
| 2026-05-05 17:14 | 12.98377 | -59.46645 | 4408 ft | 200 kts | 353° |
| 2026-05-05 17:14 | 12.99703 | -59.46900 | 4127 ft | 189 kts | 354° |
| 2026-05-05 17:14 | 13.00972 | -59.47142 | 3846 ft | 182 kts | 354° |
| 2026-05-05 17:14 | 13.02214 | -59.47377 | 3577 ft | 182 kts | 354° |
| 2026-05-05 17:15 | 13.03460 | -59.47614 | 3379 ft | 180 kts | 355° |
| 2026-05-05 17:15 | 13.04676 | -59.47845 | 3226 ft | 175 kts | 355° |
| 2026-05-05 17:15 | 13.05861 | -59.48071 | 3083 ft | 171 kts | 355° |
| 2026-05-05 17:15 | 13.07006 | -59.48291 | 3071 ft | 164 kts | 356° |
| 2026-05-05 17:16 | 13.08126 | -59.48386 | 3061 ft | 157 kts | 18° |
| 2026-05-05 17:16 | 13.08982 | -59.47835 | 3067 ft | 140 kts | 55° |
| 2026-05-05 17:16 | 13.09344 | -59.46943 | 3083 ft | 136 kts | 80° |
| 2026-05-05 17:16 | 13.09538 | -59.45976 | 3085 ft | 140 kts | 78° |
| 2026-05-05 17:17 | 13.09530 | -59.44985 | 3076 ft | 142 kts | 109° |
| 2026-05-05 17:17 | 13.08938 | -59.44195 | 3078 ft | 144 kts | 141° |
| 2026-05-05 17:17 | 13.07953 | -59.43915 | 3083 ft | 155 kts | 178° |
| 2026-05-05 17:17 | 13.06950 | -59.44388 | 3084 ft | 169 kts | 222° |
| 2026-05-05 17:18 | 13.06511 | -59.45494 | 3083 ft | 172 kts | 271° |
| 2026-05-05 17:18 | 13.06903 | -59.46617 | 3085 ft | 168 kts | 306° |
| 2026-05-05 17:18 | 13.07490 | -59.47662 | 3080 ft | 173 kts | 289° |
| 2026-05-05 17:18 | 13.07398 | -59.48866 | 3087 ft | 177 kts | 240° |
| 2026-05-05 17:19 | 13.06526 | -59.49674 | 3081 ft | 168 kts | 193° |
| 2026-05-05 17:19 | 13.05430 | -59.49628 | 3088 ft | 155 kts | 152° |
| 2026-05-05 17:19 | 13.04641 | -59.48940 | 3085 ft | 148 kts | 117° |
| 2026-05-05 17:19 | 13.04413 | -59.47942 | 3086 ft | 145 kts | 85° |
| 2026-05-05 17:20 | 13.04627 | -59.46939 | 3085 ft | 144 kts | 78° |
| 2026-05-05 17:20 | 13.04849 | -59.45939 | 3087 ft | 144 kts | 79° |
| 2026-05-05 17:20 | 13.05062 | -59.44932 | 3079 ft | 145 kts | 79° |
| 2026-05-05 17:20 | 13.05272 | -59.43927 | 3078 ft | 144 kts | 79° |
| 2026-05-05 17:21 | 13.05492 | -59.42929 | 3078 ft | 143 kts | 73° |
| 2026-05-05 17:21 | 13.06113 | -59.42137 | 3083 ft | 149 kts | 37° |
| 2026-05-05 17:21 | 13.07145 | -59.41900 | 3079 ft | 161 kts | 358° |
| 2026-05-05 17:22 | 13.08496 | -59.43620 | 3082 ft | 175 kts | 265° |
| 2026-05-05 17:22 | 13.08267 | -59.44845 | 3084 ft | 176 kts | 255° |
| 2026-05-05 17:22 | 13.07989 | -59.46083 | 3085 ft | 180 kts | 257° |
| 2026-05-05 17:22 | 13.07723 | -59.47333 | 3083 ft | 179 kts | 257° |
| 2026-05-05 17:23 | 13.07443 | -59.48579 | 3083 ft | 179 kts | 249° |
| 2026-05-05 17:23 | 13.06711 | -59.49561 | 3067 ft | 172 kts | 205° |
| 2026-05-05 17:23 | 13.05615 | -59.49729 | 3069 ft | 155 kts | 157° |
| 2026-05-05 17:23 | 13.04759 | -59.49140 | 3081 ft | 147 kts | 124° |
| 2026-05-05 17:24 | 13.04400 | -59.48192 | 3080 ft | 144 kts | 92° |
| 2026-05-05 17:24 | 13.04561 | -59.47190 | 3086 ft | 143 kts | 77° |
| 2026-05-05 17:24 | 13.04792 | -59.46192 | 3085 ft | 144 kts | 79° |
| 2026-05-05 17:24 | 13.05008 | -59.45187 | 3081 ft | 145 kts | 79° |
| 2026-05-05 17:25 | 13.05219 | -59.44180 | 3080 ft | 144 kts | 79° |
| 2026-05-05 17:25 | 13.05357 | -59.43519 | 3080 ft | 143 kts | 78° |
| 2026-05-05 17:25 | 13.05899 | -59.42300 | 3084 ft | 147 kts | 46° |
| 2026-05-05 17:25 | 13.06857 | -59.41890 | 3083 ft | 158 kts | 8° |
| 2026-05-05 17:26 | 13.07918 | -59.42240 | 3082 ft | 170 kts | 325° |
| 2026-05-05 17:26 | 13.08490 | -59.43297 | 3083 ft | 176 kts | 277° |
| 2026-05-05 17:26 | 13.08345 | -59.44535 | 3085 ft | 176 kts | 255° |
| 2026-05-05 17:26 | 13.08069 | -59.45768 | 3085 ft | 179 kts | 257° |
| 2026-05-05 17:27 | 13.07802 | -59.47022 | 3085 ft | 180 kts | 257° |
| 2026-05-05 17:27 | 13.07474 | -59.48257 | 3034 ft | 182 kts | 243° |
| 2026-05-05 17:27 | 13.06729 | -59.49282 | 2920 ft | 176 kts | 223° |
| 2026-05-05 17:27 | 13.05914 | -59.50197 | 2690 ft | 173 kts | 224° |
| 2026-05-05 17:28 | 13.05109 | -59.51115 | 2471 ft | 174 kts | 224° |
| 2026-05-05 17:28 | 13.04302 | -59.52034 | 2245 ft | 172 kts | 224° |
| 2026-05-05 17:28 | 13.03519 | -59.52926 | 2025 ft | 169 kts | 224° |
| 2026-05-05 17:28 | 13.02731 | -59.53824 | 1809 ft | 171 kts | 224° |
| 2026-05-05 17:29 | 13.01932 | -59.54733 | 1588 ft | 171 kts | 224° |
| 2026-05-05 17:29 | 13.01157 | -59.55619 | 1494 ft | 160 kts | 224° |
| 2026-05-05 17:29 | 13.00437 | -59.56441 | 1484 ft | 151 kts | 224° |
| 2026-05-05 17:29 | 12.99756 | -59.57216 | 1485 ft | 142 kts | 225° |
| 2026-05-05 17:30 | 12.99370 | -59.58076 | 1485 ft | 130 kts | 270° |
| 2026-05-05 17:30 | 12.99597 | -59.58948 | 1486 ft | 129 kts | 311° |
| 2026-05-05 17:30 | 13.00303 | -59.59488 | 1504 ft | 127 kts | 351° |
| 2026-05-05 17:30 | 13.01160 | -59.59469 | 1508 ft | 124 kts | 26° |
| 2026-05-05 17:31 | 13.01946 | -59.59101 | 1507 ft | 126 kts | 28° |
| 2026-05-05 17:31 | 13.02751 | -59.58733 | 1505 ft | 127 kts | 30° |
| 2026-05-05 17:31 | 13.03549 | -59.58363 | 1505 ft | 122 kts | 30° |
| 2026-05-05 17:31 | 13.04285 | -59.58021 | 1484 ft | 111 kts | 32° |
| 2026-05-05 17:32 | 13.04958 | -59.57706 | 1487 ft | 99 kts | 33° |
| 2026-05-05 17:32 | 13.05498 | -59.57407 | 1468 ft | 78 kts | 54° |
| 2026-05-05 17:32 | 13.05694 | -59.56933 | 1402 ft | 75 kts | 81° |
| 2026-05-05 17:32 | 13.05749 | -59.56378 | 1233 ft | 80 kts | 82° |
| 2026-05-05 17:33 | 13.05837 | -59.55827 | 1042 ft | 78 kts | 77° |
| 2026-05-05 17:33 | 13.05971 | -59.55266 | 830 ft | 84 kts | 77° |
| 2026-05-05 17:33 | 13.06128 | -59.54717 | 699 ft | 80 kts | 80° |
| 2026-05-05 17:33 | 13.06278 | -59.54124 | 567 ft | 91 kts | 83° |
| 2026-05-05 17:34 | 13.06397 | -59.53468 | 507 ft | 95 kts | 82° |
| 2026-05-05 17:34 | 13.06581 | -59.52802 | 537 ft | 95 kts | 78° |
| 2026-05-05 17:34 | 13.06744 | -59.52169 | 503 ft | 91 kts | 79° |
| 2026-05-05 17:34 | 13.06898 | -59.51541 | 399 ft | 89 kts | 79° |
| 2026-05-05 17:35 | 13.07039 | -59.50947 | 259 ft | 85 kts | 81° |
| 2026-05-05 17:35 | 13.07190 | -59.50360 | 180 ft | 84 kts | 83° |
| 2026-05-05 17:35 | 13.07308 | -59.49853 | 171 ft | 59 kts | 76° |
| 2026-05-05 17:35 | 13.07392 | -59.49524 | 170 ft | 38 kts | 75° |
| 2026-05-05 17:36 | 13.07442 | -59.49319 | 169 ft | 15 kts | 89° |
| 2026-05-05 17:36 | 13.07381 | -59.49258 | 169 ft | 12 kts | 154° |
| 2026-05-05 17:36 | 13.07341 | -59.49223 | 169 ft | 9 kts | 70° |
| 2026-05-05 17:36 | 13.07364 | -59.49144 | 169 ft | 11 kts | 79° |
| 2026-05-05 17:37 | 13.07351 | -59.49107 | 169 ft | 6 kts | 184° |
| 2026-05-05 17:37 | 13.07351 | -59.49122 | 169 ft | 3 kts | 356° |
| 2026-05-05 17:37 | 13.07352 | -59.49122 | 169 ft | 0 kts | 357° |